GSMCB EGNJ-ENSB
Flight info
| Callsign | GSMCB |
|---|---|
| Flight time | N/A |
| Altitude | 36000 |
| Route | ODNEK N110 UNTAL UP18 ALASO/N0442F390 DCT RIGVU Z105 FLS Z286 OSMUM P5 NONVU M604 INPAR |
| Aircraft | A20N/M-SDE2E3FGHIRWXY/LB1 |
Departure
| Time | 2026-05-04 15:47 |
|---|---|
| Airport | Humberside Airport (EGNJ) |
Arrival
| Time | N/A |
|---|---|
| Airport | Svalbard Airport, Longyear (ENSB) |
| Time | Latitude | Longitude | Altitude | Speed | Heading |
|---|---|---|---|---|---|
| 2026-05-04 15:27 | 53.58264 | -0.34909 | 80 ft | 0 kts | 49° |
| 2026-05-04 15:38 | 53.58257 | -0.34922 | 83 ft | 3 kts | 49° |
| 2026-05-04 15:38 | 53.58238 | -0.34960 | 81 ft | 4 kts | 49° |
| 2026-05-04 15:39 | 53.58221 | -0.34999 | 85 ft | 4 kts | 79° |
| 2026-05-04 15:39 | 53.58220 | -0.35013 | 84 ft | 0 kts | 93° |
| 2026-05-04 15:43 | 53.58215 | -0.34992 | 82 ft | 6 kts | 121° |
| 2026-05-04 15:43 | 53.58169 | -0.34901 | 83 ft | 13 kts | 131° |
| 2026-05-04 15:43 | 53.58103 | -0.34804 | 81 ft | 0 kts | 146° |
| 2026-05-04 15:44 | 53.58077 | -0.34771 | 84 ft | 13 kts | 142° |
| 2026-05-04 15:44 | 53.57986 | -0.34712 | 85 ft | 15 kts | 178° |
| 2026-05-04 15:44 | 53.57885 | -0.34771 | 88 ft | 17 kts | 204° |
| 2026-05-04 15:44 | 53.57687 | -0.34905 | 97 ft | 37 kts | 202° |
| 2026-05-04 15:45 | 53.57450 | -0.35064 | 100 ft | 36 kts | 203° |
| 2026-05-04 15:45 | 53.57220 | -0.35229 | 104 ft | 35 kts | 201° |
| 2026-05-04 15:45 | 53.57003 | -0.35383 | 111 ft | 32 kts | 202° |
| 2026-05-04 15:45 | 53.56807 | -0.35518 | 118 ft | 29 kts | 201° |
| 2026-05-04 15:46 | 53.56628 | -0.35637 | 125 ft | 18 kts | 195° |
| 2026-05-04 15:46 | 53.56587 | -0.35649 | 129 ft | 16 kts | 198° |
| 2026-05-04 15:46 | 53.56544 | -0.35698 | 125 ft | 6 kts | 306° |
| 2026-05-04 15:46 | 53.56600 | -0.35660 | 129 ft | 22 kts | 21° |
| 2026-05-04 15:47 | 53.56990 | -0.35391 | 110 ft | 97 kts | 22° |
| 2026-05-04 15:47 | 53.57798 | -0.34836 | 103 ft | 150 kts | 22° |
| 2026-05-04 15:47 | 53.58765 | -0.34194 | 678 ft | 147 kts | 22° |
| 2026-05-04 15:47 | 53.59705 | -0.33572 | 1351 ft | 147 kts | 21° |
| 2026-05-04 15:48 | 53.60669 | -0.32945 | 1925 ft | 152 kts | 20° |
| 2026-05-04 15:48 | 53.61731 | -0.32288 | 2338 ft | 170 kts | 19° |
| 2026-05-04 15:48 | 53.64075 | -0.32991 | 3494 ft | 193 kts | 319° |
| 2026-05-04 15:49 | 53.64940 | -0.34774 | 4138 ft | 202 kts | 306° |
| 2026-05-04 15:49 | 53.65785 | -0.36794 | 4685 ft | 220 kts | 304° |
| 2026-05-04 15:49 | 53.66804 | -0.38872 | 5214 ft | 240 kts | 313° |
| 2026-05-04 15:49 | 53.68003 | -0.40940 | 5726 ft | 260 kts | 313° |
| 2026-05-04 15:50 | 53.69267 | -0.43193 | 6549 ft | 266 kts | 313° |
| 2026-05-04 15:50 | 53.70649 | -0.45295 | 7441 ft | 270 kts | 322° |
| 2026-05-04 15:50 | 53.72222 | -0.47091 | 8302 ft | 275 kts | 325° |
| 2026-05-04 15:50 | 53.73829 | -0.48909 | 9181 ft | 279 kts | 324° |
| 2026-05-04 15:51 | 53.75424 | -0.50749 | 10044 ft | 284 kts | 324° |
| 2026-05-04 15:51 | 53.77087 | -0.52682 | 10578 ft | 300 kts | 324° |
| 2026-05-04 15:51 | 53.78872 | -0.54762 | 10856 ft | 323 kts | 324° |
| 2026-05-04 15:51 | 53.80769 | -0.56968 | 11328 ft | 336 kts | 324° |
| 2026-05-04 15:52 | 53.82705 | -0.59219 | 12118 ft | 339 kts | 324° |
| 2026-05-04 15:52 | 53.84666 | -0.61502 | 12888 ft | 343 kts | 324° |
| 2026-05-04 15:52 | 53.86645 | -0.63807 | 13677 ft | 347 kts | 324° |
| 2026-05-04 15:52 | 53.88648 | -0.66145 | 14379 ft | 351 kts | 324° |
| 2026-05-04 15:53 | 53.90669 | -0.68506 | 15050 ft | 355 kts | 324° |
| 2026-05-04 15:53 | 53.92720 | -0.70906 | 15734 ft | 359 kts | 324° |
| 2026-05-04 15:53 | 53.94783 | -0.73323 | 16407 ft | 362 kts | 324° |
| 2026-05-04 15:53 | 53.96869 | -0.75769 | 17067 ft | 366 kts | 324° |
| 2026-05-04 15:54 | 53.98974 | -0.78241 | 17725 ft | 370 kts | 324° |
| 2026-05-04 15:54 | 54.01104 | -0.80746 | 18367 ft | 374 kts | 324° |
| 2026-05-04 15:54 | 54.03224 | -0.83241 | 18931 ft | 377 kts | 324° |
| 2026-05-04 15:54 | 54.05394 | -0.85799 | 19483 ft | 381 kts | 324° |
| 2026-05-04 15:55 | 54.07579 | -0.88379 | 20045 ft | 384 kts | 324° |
| 2026-05-04 15:55 | 54.09781 | -0.90981 | 20614 ft | 387 kts | 324° |
| 2026-05-04 15:55 | 54.11998 | -0.93606 | 21161 ft | 390 kts | 324° |
| 2026-05-04 15:55 | 54.14240 | -0.96264 | 21698 ft | 393 kts | 325° |
| 2026-05-04 15:56 | 54.16477 | -0.98918 | 22229 ft | 397 kts | 325° |
| 2026-05-04 15:56 | 54.18760 | -1.01632 | 22776 ft | 400 kts | 325° |
| 2026-05-04 15:56 | 54.21054 | -1.04362 | 23307 ft | 403 kts | 325° |
| 2026-05-04 15:56 | 54.23362 | -1.07112 | 23807 ft | 406 kts | 325° |
| 2026-05-04 15:57 | 54.25685 | -1.09885 | 24284 ft | 408 kts | 326° |
| 2026-05-04 15:57 | 54.28019 | -1.12675 | 24756 ft | 409 kts | 326° |
| 2026-05-04 15:57 | 54.30367 | -1.15454 | 25201 ft | 411 kts | 328° |
| 2026-05-04 15:57 | 54.32805 | -1.17853 | 25594 ft | 414 kts | 332° |
| 2026-05-04 15:58 | 54.35348 | -1.20252 | 26014 ft | 416 kts | 332° |
| 2026-05-04 15:58 | 54.37890 | -1.22668 | 26395 ft | 419 kts | 332° |
| 2026-05-04 15:58 | 54.40444 | -1.25102 | 26809 ft | 420 kts | 332° |
| 2026-05-04 15:58 | 54.43006 | -1.27548 | 27205 ft | 423 kts | 332° |
| 2026-05-04 15:59 | 54.45585 | -1.30013 | 27594 ft | 425 kts | 332° |
| 2026-05-04 15:59 | 54.48176 | -1.32492 | 27975 ft | 427 kts | 332° |
| 2026-05-04 15:59 | 54.50781 | -1.34988 | 28338 ft | 429 kts | 332° |
| 2026-05-04 15:59 | 54.53396 | -1.37497 | 28691 ft | 431 kts | 332° |
| 2026-05-04 16:00 | 54.55138 | -1.39170 | 28920 ft | 432 kts | 332° |
| 2026-05-04 16:00 | 54.57769 | -1.41701 | 29268 ft | 434 kts | 332° |
| 2026-05-04 16:00 | 54.60413 | -1.44247 | 29589 ft | 436 kts | 332° |
| 2026-05-04 16:00 | 54.63060 | -1.46799 | 29939 ft | 437 kts | 332° |
| 2026-05-04 16:01 | 54.65727 | -1.49376 | 30219 ft | 439 kts | 331° |
| 2026-05-04 16:01 | 54.68385 | -1.51949 | 30505 ft | 441 kts | 331° |
| 2026-05-04 16:01 | 54.71066 | -1.54547 | 30799 ft | 443 kts | 331° |
| 2026-05-04 16:01 | 54.73758 | -1.57159 | 31089 ft | 444 kts | 331° |
| 2026-05-04 16:02 | 54.76421 | -1.59748 | 31434 ft | 444 kts | 331° |
| 2026-05-04 16:02 | 54.79109 | -1.62364 | 31825 ft | 443 kts | 331° |
| 2026-05-04 16:02 | 54.84437 | -1.67560 | 32567 ft | 441 kts | 330° |
| 2026-05-04 16:03 | 54.87110 | -1.70133 | 32921 ft | 439 kts | 334° |
| 2026-05-04 16:03 | 54.89972 | -1.71984 | 33230 ft | 440 kts | 346° |
| 2026-05-04 16:03 | 54.93002 | -1.72728 | 33509 ft | 441 kts | 358° |
| 2026-05-04 16:03 | 54.96069 | -1.72336 | 33771 ft | 443 kts | 9° |
| 2026-05-04 16:04 | 54.99112 | -1.71350 | 34028 ft | 444 kts | 9° |
| 2026-05-04 16:04 | 55.05192 | -1.69388 | 34487 ft | 445 kts | 9° |
| 2026-05-04 16:04 | 55.08238 | -1.68401 | 34700 ft | 445 kts | 9° |
| 2026-05-04 16:05 | 55.11279 | -1.67412 | 34914 ft | 445 kts | 9° |
| 2026-05-04 16:05 | 55.14328 | -1.66420 | 35131 ft | 445 kts | 8° |
| 2026-05-04 16:05 | 55.20426 | -1.64439 | 35514 ft | 446 kts | 8° |
| 2026-05-04 16:06 | 55.23480 | -1.63445 | 35714 ft | 446 kts | 8° |
| 2026-05-04 16:06 | 55.32602 | -1.60464 | 36004 ft | 447 kts | 8° |
| 2026-05-04 16:07 | 55.35652 | -1.59464 | 36002 ft | 446 kts | 8° |
| 2026-05-04 16:07 | 55.44730 | -1.55583 | 36000 ft | 451 kts | 19° |
| 2026-05-04 16:08 | 55.47613 | -1.53387 | 35998 ft | 452 kts | 24° |
| 2026-05-04 16:09 | 55.61361 | -1.39752 | 36010 ft | 456 kts | 27° |
| 2026-05-04 16:10 | 55.72403 | -1.28586 | 36016 ft | 458 kts | 27° |
| 2026-05-04 16:11 | 55.83468 | -1.17302 | 36017 ft | 459 kts | 27° |
| 2026-05-04 16:12 | 56.00090 | -1.00210 | 36008 ft | 460 kts | 27° |
| 2026-05-04 16:13 | 56.11180 | -0.88710 | 36006 ft | 461 kts | 27° |
| 2026-05-04 16:14 | 56.22236 | -0.77167 | 36005 ft | 461 kts | 27° |
| 2026-05-04 16:16 | 56.36103 | -0.62579 | 36000 ft | 462 kts | 27° |
| 2026-05-04 16:17 | 56.49985 | -0.47850 | 35993 ft | 463 kts | 27° |
| 2026-05-04 16:18 | 56.61065 | -0.36001 | 35997 ft | 464 kts | 27° |
| 2026-05-04 16:19 | 56.74984 | -0.21003 | 35995 ft | 466 kts | 27° |
| 2026-05-04 16:20 | 56.88922 | -0.05852 | 36000 ft | 467 kts | 27° |
| 2026-05-04 16:22 | 57.02854 | 0.09427 | 36000 ft | 468 kts | 27° |
| 2026-05-04 16:23 | 57.19576 | 0.27945 | 35995 ft | 469 kts | 27° |
| 2026-05-04 16:25 | 57.36311 | 0.46676 | 35985 ft | 470 kts | 27° |
| 2026-05-04 16:26 | 57.55827 | 0.68777 | 35981 ft | 470 kts | 27° |
| 2026-05-04 16:28 | 57.69774 | 0.84744 | 35977 ft | 471 kts | 28° |
| 2026-05-04 16:29 | 57.89295 | 1.07341 | 35974 ft | 472 kts | 28° |
| 2026-05-04 16:31 | 58.03259 | 1.23685 | 35973 ft | 473 kts | 28° |
| 2026-05-04 16:32 | 58.20012 | 1.43496 | 35966 ft | 473 kts | 28° |
| 2026-05-04 16:33 | 58.31173 | 1.56819 | 35966 ft | 474 kts | 28° |
| 2026-05-04 16:34 | 58.39514 | 1.66841 | 35965 ft | 475 kts | 28° |
| 2026-05-04 16:35 | 58.55699 | 1.86452 | 35966 ft | 475 kts | 28° |
| 2026-05-04 16:36 | 58.64064 | 1.96673 | 35970 ft | 475 kts | 28° |
| 2026-05-04 16:37 | 58.72421 | 2.06934 | 35961 ft | 475 kts | 28° |
| 2026-05-04 16:38 | 58.82967 | 2.22423 | 35957 ft | 481 kts | 42° |
| 2026-05-04 16:39 | 58.94915 | 2.45002 | 35949 ft | 481 kts | 41° |
| 2026-05-04 16:40 | 59.04471 | 2.63294 | 35931 ft | 482 kts | 41° |
| 2026-05-04 16:41 | 59.16369 | 2.86289 | 35952 ft | 484 kts | 41° |
| 2026-05-04 16:43 | 59.28298 | 3.09586 | 35958 ft | 485 kts | 41° |
| 2026-05-04 16:43 | 59.35442 | 3.23656 | 35947 ft | 486 kts | 42° |
| 2026-05-04 16:45 | 59.49708 | 3.52022 | 35947 ft | 488 kts | 42° |
| 2026-05-04 16:46 | 59.61600 | 3.75947 | 35948 ft | 489 kts | 42° |
| 2026-05-04 16:47 | 59.71099 | 3.95242 | 35938 ft | 489 kts | 43° |
| 2026-05-04 16:48 | 59.80541 | 4.14591 | 35929 ft | 489 kts | 43° |
| 2026-05-04 16:49 | 59.89988 | 4.34117 | 35929 ft | 490 kts | 43° |
| 2026-05-04 16:50 | 59.99415 | 4.53773 | 35923 ft | 490 kts | 43° |
| 2026-05-04 16:51 | 60.06393 | 4.68436 | 35920 ft | 491 kts | 43° |
| 2026-05-04 16:52 | 60.15832 | 4.88422 | 35912 ft | 491 kts | 43° |
| 2026-05-04 16:53 | 60.22871 | 5.03444 | 35913 ft | 492 kts | 44° |
| 2026-05-04 16:54 | 60.32380 | 5.23286 | 35908 ft | 489 kts | 35° |
| 2026-05-04 16:55 | 60.48244 | 5.49050 | 35898 ft | 490 kts | 35° |
| 2026-05-04 16:56 | 60.61501 | 5.70895 | 35869 ft | 491 kts | 36° |
| 2026-05-04 16:57 | 60.69445 | 5.84099 | 35856 ft | 491 kts | 36° |
| 2026-05-04 16:58 | 60.80017 | 6.01808 | 35851 ft | 491 kts | 36° |
| 2026-05-04 17:00 | 60.95586 | 6.29090 | 35820 ft | 492 kts | 38° |
| 2026-05-04 17:01 | 61.08490 | 6.52277 | 35813 ft | 493 kts | 38° |
| 2026-05-04 17:02 | 61.18805 | 6.70987 | 35787 ft | 493 kts | 38° |
| 2026-05-04 17:03 | 61.26467 | 6.84996 | 35790 ft | 494 kts | 38° |
| 2026-05-04 17:03 | 61.34139 | 6.99118 | 35790 ft | 495 kts | 38° |
| 2026-05-04 17:04 | 61.44431 | 7.18215 | 35786 ft | 493 kts | 38° |
| 2026-05-04 17:05 | 61.54674 | 7.37398 | 35800 ft | 494 kts | 38° |
| 2026-05-04 17:06 | 61.62322 | 7.51836 | 35794 ft | 494 kts | 38° |
| 2026-05-04 17:07 | 61.69090 | 7.64884 | 35796 ft | 497 kts | 40° |
| 2026-05-04 17:07 | 61.74904 | 7.76601 | 35802 ft | 498 kts | 40° |
| 2026-05-04 17:08 | 61.82395 | 7.91700 | 35790 ft | 495 kts | 40° |
| 2026-05-04 17:09 | 61.87383 | 8.01790 | 35802 ft | 496 kts | 40° |
| 2026-05-04 17:09 | 61.92377 | 8.11940 | 35796 ft | 496 kts | 40° |
| 2026-05-04 17:10 | 62.04756 | 8.37312 | 35793 ft | 497 kts | 40° |
| 2026-05-04 17:11 | 62.09735 | 8.47604 | 35790 ft | 497 kts | 40° |
| 2026-05-04 17:12 | 62.17178 | 8.63081 | 35793 ft | 498 kts | 40° |
| 2026-05-04 17:13 | 62.29569 | 8.89094 | 35789 ft | 499 kts | 40° |
| 2026-05-04 17:14 | 62.39394 | 9.09950 | 35780 ft | 498 kts | 40° |
| 2026-05-04 17:15 | 62.46778 | 9.25757 | 35773 ft | 499 kts | 40° |
| 2026-05-04 17:16 | 62.56568 | 9.46896 | 35765 ft | 498 kts | 40° |
| 2026-05-04 17:17 | 62.66340 | 9.68206 | 35753 ft | 497 kts | 41° |
| 2026-05-04 17:18 | 62.76000 | 9.89482 | 35737 ft | 495 kts | 41° |
| 2026-05-04 17:19 | 62.85243 | 10.08194 | 35756 ft | 491 kts | 28° |
| 2026-05-04 17:20 | 62.97091 | 10.22503 | 35752 ft | 485 kts | 22° |
| 2026-05-04 17:20 | 63.06017 | 10.33030 | 35743 ft | 485 kts | 22° |
| 2026-05-04 17:21 | 63.17768 | 10.46956 | 35723 ft | 483 kts | 22° |
| 2026-05-04 17:22 | 63.23698 | 10.54032 | 35711 ft | 483 kts | 22° |
| 2026-05-04 17:23 | 63.35453 | 10.68157 | 35688 ft | 483 kts | 23° |
| 2026-05-04 17:24 | 63.44323 | 10.78904 | 35683 ft | 483 kts | 23° |
| 2026-05-04 17:24 | 63.53376 | 10.88129 | 35674 ft | 473 kts | 10° |
| 2026-05-04 17:25 | 63.56556 | 10.89850 | 35682 ft | 468 kts | 4° |
| 2026-05-04 17:26 | 63.69370 | 10.93702 | 35684 ft | 466 kts | 1° |
| 2026-05-04 17:27 | 63.85420 | 10.98300 | 35680 ft | 467 kts | 1° |
| 2026-05-04 17:28 | 63.98319 | 11.02012 | 35681 ft | 467 kts | 1° |
| 2026-05-04 17:29 | 64.17715 | 11.07667 | 35677 ft | 468 kts | 1° |
| 2026-05-04 17:31 | 64.33810 | 11.12418 | 35676 ft | 469 kts | 2° |
| 2026-05-04 17:32 | 64.50023 | 11.17255 | 35669 ft | 469 kts | 2° |
| 2026-05-04 17:33 | 64.62943 | 11.21142 | 35655 ft | 470 kts | 3° |
| 2026-05-04 17:34 | 64.75901 | 11.25096 | 35631 ft | 469 kts | 4° |
| 2026-05-04 17:35 | 64.92023 | 11.30064 | 35617 ft | 467 kts | 4° |
| 2026-05-04 17:36 | 64.98469 | 11.32069 | 35619 ft | 467 kts | 4° |
| 2026-05-04 17:36 | 65.04907 | 11.34082 | 35619 ft | 467 kts | 4° |
| 2026-05-04 17:37 | 65.11345 | 11.36104 | 35622 ft | 467 kts | 4° |
| 2026-05-04 17:37 | 65.17790 | 11.38137 | 35627 ft | 467 kts | 4° |
| 2026-05-04 17:38 | 65.24246 | 11.40184 | 35626 ft | 468 kts | 4° |
| 2026-05-04 17:38 | 65.30706 | 11.42242 | 35636 ft | 468 kts | 4° |
| 2026-05-04 17:39 | 65.40409 | 11.45353 | 35638 ft | 469 kts | 4° |
| 2026-05-04 17:39 | 65.46853 | 11.47432 | 35641 ft | 470 kts | 4° |
| 2026-05-04 17:40 | 65.53337 | 11.49533 | 35648 ft | 470 kts | 5° |
| 2026-05-04 17:40 | 65.59835 | 11.51650 | 35648 ft | 471 kts | 5° |
| 2026-05-04 17:41 | 65.66332 | 11.53777 | 35651 ft | 471 kts | 5° |
| 2026-05-04 17:41 | 65.72788 | 11.55902 | 35652 ft | 471 kts | 5° |
| 2026-05-04 17:42 | 65.79295 | 11.58054 | 35649 ft | 471 kts | 5° |
| 2026-05-04 17:42 | 65.85762 | 11.60204 | 35650 ft | 471 kts | 5° |
| 2026-05-04 17:43 | 65.92266 | 11.62378 | 35648 ft | 471 kts | 5° |
| 2026-05-04 17:43 | 65.98755 | 11.64557 | 35643 ft | 471 kts | 5° |
| 2026-05-04 17:44 | 66.05241 | 11.66746 | 35643 ft | 470 kts | 5° |
| 2026-05-04 17:44 | 66.11728 | 11.68947 | 35641 ft | 470 kts | 5° |
| 2026-05-04 17:45 | 66.18203 | 11.71156 | 35639 ft | 469 kts | 5° |
| 2026-05-04 17:45 | 66.24630 | 11.73359 | 35634 ft | 469 kts | 5° |
| 2026-05-04 17:46 | 66.31095 | 11.75587 | 35627 ft | 469 kts | 5° |
| 2026-05-04 17:46 | 66.37562 | 11.77827 | 35629 ft | 468 kts | 5° |
| 2026-05-04 17:47 | 66.43984 | 11.80063 | 35621 ft | 468 kts | 5° |
| 2026-05-04 17:47 | 66.50439 | 11.82323 | 35628 ft | 468 kts | 5° |
| 2026-05-04 17:48 | 66.56888 | 11.84591 | 35619 ft | 468 kts | 5° |
| 2026-05-04 17:48 | 66.63342 | 11.86874 | 35625 ft | 468 kts | 6° |
| 2026-05-04 17:49 | 66.69797 | 11.89170 | 35615 ft | 469 kts | 6° |
| 2026-05-04 17:49 | 66.76269 | 11.91482 | 35619 ft | 469 kts | 6° |
| 2026-05-04 17:50 | 66.82728 | 11.93803 | 35629 ft | 469 kts | 6° |
| 2026-05-04 17:50 | 66.89196 | 11.96138 | 35626 ft | 469 kts | 6° |
| 2026-05-04 17:51 | 66.95626 | 11.98474 | 35628 ft | 469 kts | 6° |
| 2026-05-04 17:51 | 67.02096 | 12.00837 | 35623 ft | 470 kts | 6° |
| 2026-05-04 17:52 | 67.08566 | 12.03210 | 35625 ft | 470 kts | 6° |
| 2026-05-04 17:52 | 67.15035 | 12.05598 | 35618 ft | 470 kts | 6° |
| 2026-05-04 17:53 | 67.21504 | 12.07999 | 35621 ft | 470 kts | 6° |
| 2026-05-04 17:53 | 67.27980 | 12.10415 | 35605 ft | 469 kts | 6° |
| 2026-05-04 17:54 | 67.34447 | 12.12840 | 35593 ft | 469 kts | 6° |
| 2026-05-04 17:54 | 67.40911 | 12.15279 | 35593 ft | 469 kts | 6° |
| 2026-05-04 17:55 | 67.47370 | 12.17728 | 35586 ft | 469 kts | 6° |
| 2026-05-04 17:55 | 67.53790 | 12.20176 | 35584 ft | 469 kts | 6° |
| 2026-05-04 17:56 | 67.60247 | 12.22652 | 35585 ft | 468 kts | 6° |
| 2026-05-04 17:56 | 67.66697 | 12.25139 | 35587 ft | 468 kts | 6° |
| 2026-05-04 17:57 | 67.73140 | 12.27637 | 35589 ft | 468 kts | 6° |
| 2026-05-04 17:57 | 67.79587 | 12.30152 | 35593 ft | 468 kts | 6° |
| 2026-05-04 17:58 | 67.86033 | 12.32678 | 35596 ft | 468 kts | 6° |
| 2026-05-04 17:58 | 67.92473 | 12.35215 | 35590 ft | 468 kts | 7° |
| 2026-05-04 17:59 | 67.98921 | 12.37774 | 35587 ft | 468 kts | 7° |
| 2026-05-04 18:00 | 68.08545 | 12.41617 | 35584 ft | 468 kts | 6° |
| 2026-05-04 18:00 | 68.15000 | 12.44211 | 35581 ft | 468 kts | 7° |
| 2026-05-04 18:01 | 68.21448 | 12.46817 | 35578 ft | 469 kts | 6° |
| 2026-05-04 18:01 | 68.27902 | 12.49444 | 35577 ft | 469 kts | 7° |
| 2026-05-04 18:02 | 68.37544 | 12.53395 | 35573 ft | 469 kts | 7° |
| 2026-05-04 18:02 | 68.43989 | 12.56053 | 35564 ft | 468 kts | 7° |
| 2026-05-04 18:03 | 68.50427 | 12.58722 | 35565 ft | 468 kts | 7° |
| 2026-05-04 18:03 | 68.56866 | 12.61407 | 35554 ft | 468 kts | 7° |
| 2026-05-04 18:04 | 68.63304 | 12.64111 | 35552 ft | 468 kts | 7° |